LKPR Airport Information

Runway Information
Runway 04 Length 6955 ft width 197 ft
Elevation 1247 ft Threshold 0 ft Heading 37
Runway 22 Length 6955 ft Width 197 ft
Elevation 1174 ft Threshold 0 ft Heading 217
Runway 06 Length 12189 ft width 148 ft
Elevation 1202 ft Threshold 0 ft Heading 65
Runway 24 Length 12189 ft Width 148 ft
Elevation 1158 ft Threshold 0 ft Heading 245
Runway 13 Length 10663 ft width 148 ft
Elevation 1160 ft Threshold 0 ft Heading 127
Runway 31 Length 10663 ft Width 148 ft
Elevation 1232 ft Threshold 0 ft Heading 307
Airport Frequencies
Type APP Name PRAHA APP Frequency 120.525 MHZ
Type ATIS Name ATIS Frequency 122.15 MHZ
Type CLD Name CLNC DEL Frequency 120.05 MHZ
Type GND Name GND Frequency 121.9 MHZ
Type INFO Name INFO Frequency 118.3 MHZ
Type RDR Name RADAR Frequency 119 MHZ
Type TWR Name TWR Frequency 118.1 MHZ
Airport Navaids
Type VOR-DME Name Neratovice Frequency 108600 KHZ
Type VOR-DME Name Praha Frequency 112600 KHZ
Type NDB Name Ruzyne Middle Frequency 307 KHZ
Type NDB Name Ruzyne North Frequency 356 KHZ
Airport Weather Information & NOTAM
ADDS - METARS form results

(0518 UTC 16 October 2019)
Data provider http://aviationweather.gov/metar/data/
 
METAR text: LKPR 160500Z 23011KT 9999 -RA SCT011 BKN024 12/11 Q1011 NOSIG
Conditions at: LKPR (PRAGUE/RUZYNE , CZ) observed 0500 UTC 16 October 2019
Temperature: 12.0°C (54°F)
Dewpoint: 11.0°C (52°F) [RH = 94%]
Pressure (altimeter): 29.85 inches Hg (1011.0 mb)
Winds: from the SW (230 degrees) at 13 MPH (11 knots; 5.7 m/s)
Visibility: 6 or more miles (10+ km)
Ceiling: 2400 feet AGL
Clouds: scattered clouds at 1100 feet AGL
broken clouds at 2400 feet AGL
Weather: -RA  (light rain)

METAR text: LKPR 160450Z 23010KT 9999 -RA SCT010 BKN012 12/11 Q1010 RMK REG QNH 1008
Conditions at: LKPR (PRAGUE/RUZYNE , CZ) observed 0450 UTC 16 October 2019
Temperature: 12.0°C (54°F)
Dewpoint: 11.0°C (52°F) [RH = 94%]
Pressure (altimeter): 29.82 inches Hg (1010.0 mb)
Winds: from the SW (230 degrees) at 12 MPH (10 knots; 5.1 m/s)
Visibility: 6 or more miles (10+ km)
Ceiling: 1200 feet AGL
Clouds: scattered clouds at 1000 feet AGL
broken clouds at 1200 feet AGL
Weather: -RA  (light rain)

METAR text: LKPR 160430Z 24014KT 9999 -RA FEW015 12/10 Q1010 NOSIG
Conditions at: LKPR (PRAGUE/RUZYNE , CZ) observed 0430 UTC 16 October 2019
Temperature: 12.0°C (54°F)
Dewpoint: 10.0°C (50°F) [RH = 88%]
Pressure (altimeter): 29.82 inches Hg (1010.0 mb)
Winds: from the WSW (240 degrees) at 16 MPH (14 knots; 7.2 m/s)
Visibility: 6 or more miles (10+ km)
Ceiling: at least 12,000 feet AGL
Clouds: few clouds at 1500 feet AGL
Weather: -RA  (light rain)

Forecast for: LKPR (PRAGUE/RUZYNE , CZ)
Text: TAF LKPR 160500Z 1606/1712 24015KT 9999 SCT030
Forecast period: 0600 to 1600 UTC 16 October 2019
Forecast type: FROM: standard forecast or significant change
Winds: from the WSW (240 degrees) at 17 MPH (15 knots; 7.7 m/s)
Visibility: 6 or more miles 10+ km)
Ceiling: at least 12,000 feet AGL
Clouds: scattered clouds at 3000 feet AGL
Weather: no significant weather forecast for this period
Text: TEMPO 1606/1616 25015G30KT 7000 RA BKN025
Forecast period: 0600 to 1600 UTC 16 October 2019
Forecast type: TEMPORARY: The following changes expected for less than half the time period
Winds: from the WSW (250 degrees) at 17 MPH (15 knots; 7.7 m/s)
gusting to 34 MPH (30 knots; 15.4 m/s)
Visibility: 4 miles (7 km)
Ceiling: 2500 feet AGL
Clouds: broken clouds at 2500 feet AGL
Weather: RA  (moderate rain)
Text: BECMG 1616/1618 22010KT CAVOK
Forecast period: 1600 UTC 16 October 2019 to 0000 UTC 17 October 2019
Forecast type: BECOMING: Conditions expected to become as follows by 1800 UTC 16 October 2019
Winds: from the SW (220 degrees) at 12 MPH (10 knots; 5.1 m/s)
Visibility: 6 or more miles 10+ km)
Ceiling: unknown
Clouds: missing
Weather: NSW  (no significant weather)
Text: BECMG 1700/1703 19005KT
Forecast period: 0000 to 1200 UTC 17 October 2019
Forecast type: BECOMING: Conditions expected to become as follows by 0300 UTC 17 October 2019
Winds: from the S (190 degrees) at 6 MPH (5 knots; 2.6 m/s)
Visibility: 6 or more miles 10+ km)
Ceiling: unknown
Clouds: missing
Weather: NSW  (no significant weather)